Hlavní strana
METAR-TAF:

METAR-TAF

Letiště :

Letiště Adolfa Suáreze

Madrid, Španělsko

zeměpisná šířka: 40-27N, zeměpisná délka: 003-33W, výška: 609 m

Aktuální stav počasí

Zpráva byla vytvořena před 11 minutami, v 00:00 UTC
vítr z různých směrů 2 kt
Teplota 11°C
Vlhkost vzduchu 94%
Tlak 1013 hPa
Viditelnost 10 km a více
Skoro jasno ve výšce 3800 ft

METAR: LEMD 160000Z VRB02KT 9999 FEW038 11/10 Q1013 NOSIG

Čas: 02:11 (00:11 UTC)

Předpověď počasí

Zpráva byla vytvořena před 1 hodinou a 11 minutami, v 23:00 UTC
Předpověď platná od 16 v 00 UTC do 17 v 06 UTC
vítr z různých směrů 5 kt
Viditelnost 10 km a více
Polojasno ve výšce 3000 ft
Pravděpodobnost 30% :
Dočasný
od 16 v 00 UTC do 16 v 05 UTC
Viditelnost: 4000 m
Oblačno až skoro zataženo ve výšce 1400 ft
mrholení, kouřmo

TAF: LEMD 152300Z 1600/1706 VRB05KT 9999 SCT030 TX22/1615Z TN07/1706Z PROB30 TEMPO 1600/1605 4000 DZ BR BKN014

Stav a předpovědi počasí z více než 4 000 letišť (zprávy METAR a TAF).

Červené a žluté tečky na mapě představují dostupné meteorologické stanice.

Když kurzor umístíte na tečku, zobrazí se název stanice.

Pak kliknutím zobrazíte stav a předpověď počasí.

Chcete-li změnit mapu, kliknutím na zelené tlačítko se znaménkem +mapu přiblížíte, kliknutím na zelené tlačítko se znaménkem – mapu oddálíte a kliknutím na zelené šipky přejdete na sousední mapy.


METAR-TAF: